createdAt,value
2018-10-12T00:00:46.419Z,52.80
2018-10-12T00:01:46.388Z,52.87
2018-10-12T00:02:46.403Z,53.09
2018-10-12T00:03:46.394Z,52.99
2018-10-12T00:04:46.401Z,53.09
2018-10-12T00:05:46.445Z,52.99
2018-10-12T00:06:46.404Z,53.09
2018-10-12T00:07:46.406Z,53.19
2018-10-12T00:08:46.410Z,53.86
2018-10-12T00:09:46.417Z,53.38
2018-10-12T00:10:46.413Z,53.64
2018-10-12T00:11:46.418Z,53.35
2018-10-12T00:12:46.425Z,53.19
2018-10-12T00:13:46.426Z,53.47
2018-10-12T00:14:46.427Z,53.54
2018-10-12T00:15:46.432Z,53.64
2018-10-12T00:16:46.433Z,53.54
2018-10-12T00:17:46.437Z,53.45
2018-10-12T00:18:46.441Z,53.47
2018-10-12T00:19:46.441Z,53.09
2018-10-12T00:20:46.453Z,53.38
2018-10-12T00:21:46.449Z,52.99
2018-10-12T00:22:46.453Z,53.38
2018-10-12T00:23:46.458Z,53.28
2018-10-12T00:24:46.458Z,53.38
2018-10-12T00:25:46.460Z,53.57
2018-10-12T00:26:46.484Z,53.66
2018-10-12T00:27:46.467Z,53.76
2018-10-12T00:28:46.467Z,53.86
2018-10-12T00:29:46.471Z,53.57
2018-10-12T00:30:46.474Z,53.86
2018-10-12T00:31:46.479Z,53.96
2018-10-12T00:32:46.482Z,54.05
2018-10-12T00:33:46.484Z,54.14
2018-10-12T00:34:46.487Z,53.86
2018-10-12T00:35:46.489Z,53.86
2018-10-12T00:36:46.490Z,53.57
2018-10-12T00:37:46.495Z,53.66
2018-10-12T00:38:46.498Z,53.57
2018-10-12T00:39:46.502Z,53.66
2018-10-12T00:40:46.504Z,53.66
2018-10-12T00:41:46.508Z,53.76
2018-10-12T00:42:46.508Z,53.57
2018-10-12T00:43:46.515Z,53.76
2018-10-12T00:44:46.531Z,54.24
2018-10-12T00:45:46.518Z,53.96
2018-10-12T00:46:46.523Z,54.43
2018-10-12T00:47:46.550Z,54.82
2018-10-12T00:48:46.531Z,54.72
2018-10-12T00:49:46.553Z,54.82
2018-10-12T00:50:46.533Z,55.11
2018-10-12T00:51:46.539Z,55.30
2018-10-12T00:52:46.540Z,55.68
2018-10-12T00:53:46.548Z,56.45
2018-10-12T00:54:46.549Z,56.26
2018-10-12T00:55:46.548Z,57.42
2018-10-12T00:56:46.552Z,57.60
2018-10-12T00:57:46.555Z,57.80
2018-10-12T00:58:46.558Z,58.28
2018-10-12T00:59:46.560Z,58.18
2018-10-12T01:00:46.564Z,57.99
2018-10-12T01:01:46.566Z,57.80
2018-10-12T01:02:46.568Z,57.99
2018-10-12T01:03:46.582Z,57.60
2018-10-12T01:04:46.577Z,57.51
2018-10-12T01:05:46.578Z,57.42
2018-10-12T01:06:46.696Z,57.90
2018-10-12T01:07:46.588Z,57.13
2018-10-12T01:08:46.592Z,57.03
2018-10-12T01:09:46.593Z,57.13
2018-10-12T01:10:46.593Z,57.32
2018-10-12T01:11:46.603Z,57.60
2018-10-12T01:12:46.611Z,56.65
2018-10-12T01:13:46.604Z,57.42
2018-10-12T01:14:46.607Z,57.51
2018-10-12T01:15:46.608Z,56.65
2018-10-12T01:16:46.613Z,56.74
2018-10-12T01:17:46.614Z,56.36
2018-10-12T01:18:46.615Z,56.36
2018-10-12T01:19:46.620Z,56.55
2018-10-12T01:20:46.621Z,56.74
2018-10-12T01:21:46.624Z,57.03
2018-10-12T01:22:46.659Z,56.84
2018-10-12T01:23:46.631Z,56.74
2018-10-12T01:24:46.635Z,56.74
2018-10-12T01:25:46.639Z,56.55
2018-10-12T01:26:46.640Z,57.42
2018-10-12T01:27:46.663Z,57.13
2018-10-12T01:28:46.652Z,56.84
2018-10-12T01:29:46.648Z,57.13
2018-10-12T01:30:46.651Z,57.10
2018-10-12T01:31:46.659Z,57.42
2018-10-12T01:32:46.653Z,57.42
2018-10-12T01:33:46.658Z,56.84
2018-10-12T01:34:46.664Z,57.13
2018-10-12T01:35:46.666Z,57.13
2018-10-12T01:36:46.669Z,56.84
2018-10-12T01:37:46.673Z,56.93
2018-10-12T01:38:46.678Z,57.13
2018-10-12T01:39:46.693Z,57.22
2018-10-12T01:40:46.679Z,57.22
2018-10-12T01:41:46.685Z,57.22
2018-10-12T01:42:46.689Z,57.70
2018-10-12T01:43:46.691Z,57.80
2018-10-12T01:44:46.694Z,57.80
2018-10-12T01:45:46.700Z,57.87
2018-10-12T01:46:46.700Z,57.60
2018-10-12T01:47:46.704Z,57.22
2018-10-12T01:48:46.706Z,57.60
2018-10-12T01:49:46.719Z,57.70
2018-10-12T01:50:46.716Z,57.51
2018-10-12T01:51:46.717Z,57.60
2018-10-12T01:52:46.718Z,58.37
2018-10-12T01:53:46.718Z,58.64
2018-10-12T01:54:46.723Z,59.31
2018-10-12T01:55:46.727Z,59.72
2018-10-12T01:56:46.730Z,60.37
2018-10-12T01:57:46.735Z,60.08
2018-10-12T01:58:46.738Z,60.27
2018-10-12T01:59:46.737Z,59.89
2018-10-12T02:00:46.743Z,60.37
2018-10-12T02:01:46.749Z,61.04
2018-10-12T02:02:46.748Z,61.14
2018-10-12T02:03:46.765Z,61.33
2018-10-12T02:04:46.757Z,62.19
2018-10-12T02:05:46.758Z,61.52
2018-10-12T02:06:46.759Z,60.91
2018-10-12T02:07:46.763Z,61.14
2018-10-12T02:08:46.766Z,62.10
2018-10-12T02:09:46.825Z,61.43
2018-10-12T02:10:46.770Z,61.81
2018-10-12T02:11:46.774Z,61.81
2018-10-12T02:12:46.775Z,62.10
2018-10-12T02:13:46.780Z,62.00
2018-10-12T02:14:46.783Z,61.52
2018-10-12T02:15:46.782Z,62.29
2018-10-12T02:16:46.789Z,61.81
2018-10-12T02:17:46.791Z,61.23
2018-10-12T02:18:46.792Z,61.33
2018-10-12T02:19:46.795Z,61.33
2018-10-12T02:20:46.801Z,61.23
2018-10-12T02:21:46.803Z,61.33
2018-10-12T02:22:46.806Z,61.33
2018-10-12T02:23:46.809Z,60.94
2018-10-12T02:24:46.813Z,61.23
2018-10-12T02:25:46.813Z,62.10
2018-10-12T02:26:46.816Z,61.81
2018-10-12T02:27:46.821Z,61.52
2018-10-12T02:28:46.834Z,62.48
2018-10-12T02:29:46.830Z,62.29
2018-10-12T02:30:46.836Z,62.55
2018-10-12T02:31:46.833Z,62.64
2018-10-12T02:32:46.837Z,62.64
2018-10-12T02:33:46.838Z,62.93
2018-10-12T02:34:46.842Z,63.51
2018-10-12T02:35:46.845Z,63.70
2018-10-12T02:36:46.849Z,63.60
2018-10-12T02:37:46.863Z,63.79
2018-10-12T02:38:46.852Z,63.99
2018-10-12T02:39:46.853Z,64.18
2018-10-12T02:40:46.856Z,63.89
2018-10-12T02:41:46.862Z,63.41
2018-10-12T02:42:46.865Z,63.79
2018-10-12T02:43:46.868Z,63.89
2018-10-12T02:44:46.871Z,63.70
2018-10-12T02:45:46.874Z,63.79
2018-10-12T02:46:46.880Z,63.99
2018-10-12T02:47:46.880Z,63.99
2018-10-12T02:48:46.886Z,63.60
2018-10-12T02:49:46.882Z,63.51
2018-10-12T02:50:46.885Z,63.60
2018-10-12T02:51:46.891Z,63.60
2018-10-12T02:52:46.898Z,63.70
2018-10-12T02:53:46.894Z,64.37
2018-10-12T02:54:46.902Z,63.99
2018-10-12T02:55:46.910Z,63.89
2018-10-12T02:56:46.903Z,64.18
2018-10-12T02:57:46.941Z,64.95
2018-10-12T02:58:46.908Z,64.76
2018-10-12T02:59:46.911Z,65.05
2018-10-12T03:00:46.915Z,65.43
2018-10-12T03:01:46.917Z,65.30
2018-10-12T03:02:46.921Z,66.07
2018-10-12T03:03:46.922Z,65.97
2018-10-12T03:04:46.926Z,66.07
2018-10-12T03:05:46.930Z,65.40
2018-10-12T03:06:46.941Z,65.40
2018-10-12T03:07:46.934Z,65.30
2018-10-12T03:08:46.937Z,64.82
2018-10-12T03:09:46.941Z,64.72
2018-10-12T03:10:46.943Z,64.72
2018-10-12T03:11:46.945Z,64.15
2018-10-12T03:12:46.948Z,64.25
2018-10-12T03:13:46.946Z,64.37
2018-10-12T03:14:46.963Z,64.47
2018-10-12T03:15:46.962Z,64.47
2018-10-12T03:16:46.967Z,63.89
2018-10-12T03:17:46.961Z,63.89
2018-10-12T03:18:46.962Z,64.18
2018-10-12T03:19:46.972Z,63.89
2018-10-12T03:20:46.972Z,64.47
2018-10-12T03:21:46.972Z,64.09
2018-10-12T03:22:46.975Z,64.05
2018-10-12T03:23:46.979Z,64.63
2018-10-12T03:24:46.980Z,64.34
2018-10-12T03:25:46.983Z,64.25
2018-10-12T03:26:46.984Z,63.57
2018-10-12T03:27:46.989Z,63.76
2018-10-12T03:28:46.994Z,63.60
2018-10-12T03:29:46.995Z,63.60
2018-10-12T03:30:46.999Z,63.70
2018-10-12T03:31:47.002Z,64.28
2018-10-12T03:32:47.004Z,63.99
2018-10-12T03:33:47.004Z,64.18
2018-10-12T03:34:47.009Z,63.99
2018-10-12T03:35:47.014Z,64.47
2018-10-12T03:36:47.014Z,64.72
2018-10-12T03:37:47.013Z,64.72
2018-10-12T03:38:47.064Z,65.69
2018-10-12T03:39:47.025Z,66.16
2018-10-12T03:40:47.032Z,66.46
2018-10-12T03:41:47.041Z,66.74
2018-10-12T03:42:47.032Z,67.13
2018-10-12T03:43:47.034Z,67.09
2018-10-12T03:44:47.037Z,67.29
2018-10-12T03:45:47.037Z,66.80
2018-10-12T03:46:47.041Z,66.52
2018-10-12T03:47:47.047Z,67.00
2018-10-12T03:48:47.052Z,65.88
2018-10-12T03:49:47.049Z,65.20
2018-10-12T03:50:47.053Z,65.78
2018-10-12T03:51:47.128Z,64.92
2018-10-12T03:52:47.057Z,64.92
2018-10-12T03:53:47.061Z,64.72
2018-10-12T03:54:47.072Z,65.69
2018-10-12T03:55:47.064Z,65.40
2018-10-12T03:56:47.065Z,65.84
2018-10-12T03:57:47.095Z,65.97
2018-10-12T03:58:47.073Z,66.03
2018-10-12T03:59:47.075Z,66.33
2018-10-12T04:00:47.079Z,66.42
2018-10-12T04:01:47.078Z,66.90
2018-10-12T04:02:47.115Z,66.90
2018-10-12T04:03:47.087Z,66.80
2018-10-12T04:04:47.089Z,66.61
2018-10-12T04:05:47.103Z,66.90
2018-10-12T04:06:47.104Z,66.90
2018-10-12T04:07:47.102Z,66.71
2018-10-12T04:08:47.104Z,67.09
2018-10-12T04:09:47.102Z,67.29
2018-10-12T04:10:47.105Z,67.06
2018-10-12T04:11:47.105Z,67.16
2018-10-12T04:12:47.109Z,67.44
2018-10-12T04:13:47.108Z,67.92
2018-10-12T04:14:47.113Z,67.73
2018-10-12T04:15:47.119Z,67.92
2018-10-12T04:16:47.120Z,67.54
2018-10-12T04:17:47.121Z,67.35
2018-10-12T04:18:47.123Z,67.35
2018-10-12T04:19:47.130Z,67.35
2018-10-12T04:20:47.125Z,67.83
2018-10-12T04:21:47.129Z,68.02
2018-10-12T04:22:47.131Z,68.50
2018-10-12T04:23:47.143Z,68.12
2018-10-12T04:24:47.135Z,67.63
2018-10-12T04:25:47.137Z,67.54
2018-10-12T04:26:47.141Z,67.44
2018-10-12T04:27:47.141Z,67.44
2018-10-12T04:28:47.154Z,67.54
2018-10-12T04:29:47.147Z,67.63
2018-10-12T04:30:47.153Z,67.25
2018-10-12T04:31:47.151Z,67.16
2018-10-12T04:32:47.153Z,67.16
2018-10-12T04:33:47.160Z,67.09
2018-10-12T04:34:47.159Z,66.52
2018-10-12T04:35:47.161Z,65.94
2018-10-12T04:36:47.163Z,65.65
2018-10-12T04:37:47.163Z,65.36
2018-10-12T04:38:47.169Z,65.27
2018-10-12T04:39:47.172Z,64.69
2018-10-12T04:40:47.172Z,64.89
2018-10-12T04:41:47.172Z,64.79
2018-10-12T04:42:47.179Z,64.98
2018-10-12T04:43:47.175Z,64.69
2018-10-12T04:44:47.179Z,64.63
2018-10-12T04:45:47.181Z,64.50
2018-10-12T04:46:47.182Z,64.50
2018-10-12T04:47:47.185Z,64.53
2018-10-12T04:48:47.204Z,64.15
2018-10-12T04:49:47.192Z,63.96
2018-10-12T04:50:47.191Z,64.05
2018-10-12T04:51:47.199Z,63.86
2018-10-12T04:52:47.194Z,64.05
2018-10-12T04:53:47.313Z,64.50
2018-10-12T04:54:47.198Z,64.40
2018-10-12T04:55:47.201Z,64.82
2018-10-12T04:56:47.208Z,64.79
2018-10-12T04:57:47.204Z,64.59
2018-10-12T04:58:47.207Z,64.69
2018-10-12T04:59:47.211Z,64.40
2018-10-12T05:00:47.271Z,64.69
2018-10-12T05:01:47.224Z,64.59
2018-10-12T05:02:47.215Z,64.40
2018-10-12T05:03:47.221Z,64.98
2018-10-12T05:04:47.219Z,64.69
2018-10-12T05:05:47.237Z,65.27
2018-10-12T05:06:47.222Z,65.46
2018-10-12T05:07:47.253Z,65.56
2018-10-12T05:08:47.226Z,66.13
2018-10-12T05:09:47.236Z,65.84
2018-10-12T05:10:47.236Z,66.03
2018-10-12T05:11:47.235Z,66.19
2018-10-12T05:12:47.237Z,66.23
2018-10-12T05:13:47.238Z,66.49
2018-10-12T05:14:47.251Z,66.96
2018-10-12T05:15:47.242Z,66.77
2018-10-12T05:16:47.244Z,67.16
2018-10-12T05:17:47.248Z,67.06
2018-10-12T05:18:47.250Z,67.54
2018-10-12T05:19:47.251Z,67.44
2018-10-12T05:20:47.253Z,67.35
2018-10-12T05:21:47.256Z,67.54
2018-10-12T05:22:47.259Z,67.63
2018-10-12T05:23:47.257Z,67.73
2018-10-12T05:24:47.262Z,68.59
2018-10-12T05:25:47.262Z,68.12
2018-10-12T05:26:47.259Z,68.50
2018-10-12T05:27:47.264Z,68.88
2018-10-12T05:28:47.270Z,68.98
2018-10-12T05:29:47.269Z,68.88
2018-10-12T05:30:47.273Z,69.26
2018-10-12T05:31:47.273Z,69.56
2018-10-12T05:32:47.277Z,69.84
2018-10-12T05:33:47.305Z,69.56
2018-10-12T05:34:47.278Z,69.17
2018-10-12T05:35:47.283Z,69.74
2018-10-12T05:36:47.282Z,70.03
2018-10-12T05:37:47.284Z,70.23
2018-10-12T05:38:47.285Z,70.32
2018-10-12T05:39:47.288Z,70.32
2018-10-12T05:40:47.293Z,70.32
2018-10-12T05:41:47.291Z,71.09
2018-10-12T05:42:47.336Z,70.99
2018-10-12T05:43:47.373Z,71.28
2018-10-12T05:44:47.297Z,71.19
2018-10-12T05:45:47.315Z,71.09
2018-10-12T05:46:47.301Z,71.57
2018-10-12T05:47:47.300Z,71.95
2018-10-12T05:48:47.366Z,71.76
2018-10-12T05:49:47.307Z,71.76
2018-10-12T05:50:47.308Z,71.76
2018-10-12T05:51:47.311Z,71.66
2018-10-12T05:52:47.311Z,72.14
2018-10-12T05:53:47.312Z,72.05
2018-10-12T05:54:47.317Z,71.95
2018-10-12T05:55:47.376Z,71.76
2018-10-12T05:56:47.317Z,72.24
2018-10-12T05:57:47.320Z,72.05
2018-10-12T05:58:47.319Z,71.66
2018-10-12T05:59:47.323Z,71.86
2018-10-12T06:00:47.325Z,71.66
2018-10-12T06:01:47.330Z,72.11
2018-10-12T06:02:47.327Z,72.30
2018-10-12T06:03:47.333Z,72.63
2018-10-12T06:04:47.340Z,72.72
2018-10-12T06:05:47.333Z,72.20
2018-10-12T06:06:47.335Z,71.95
2018-10-12T06:07:47.341Z,72.05
2018-10-12T06:08:47.340Z,72.14
2018-10-12T06:09:47.445Z,72.24
2018-10-12T06:10:47.338Z,71.66
2018-10-12T06:11:47.344Z,71.86
2018-10-12T06:12:47.385Z,71.57
2018-10-12T06:13:47.362Z,71.95
2018-10-12T06:14:47.347Z,71.12
2018-10-12T06:15:47.422Z,70.26
2018-10-12T06:16:47.357Z,68.70
2018-10-12T06:17:47.354Z,67.32
2018-10-12T06:18:47.356Z,65.05
2018-10-12T06:19:47.358Z,63.73
2018-10-12T06:20:47.362Z,62.32
2018-10-12T06:21:47.363Z,61.38
2018-10-12T06:22:47.364Z,60.45
2018-10-12T06:23:47.367Z,59.23
2018-10-12T06:24:47.367Z,58.19
2018-10-12T06:25:47.373Z,57.62
2018-10-12T06:26:47.434Z,56.20
2018-10-12T06:27:47.383Z,56.20
2018-10-12T06:28:47.383Z,56.48
2018-10-12T06:29:47.383Z,55.90
2018-10-12T06:30:47.391Z,56.03
2018-10-12T06:31:47.393Z,54.97
2018-10-12T06:32:47.457Z,54.22
2018-10-12T06:33:47.400Z,53.77
2018-10-12T06:34:47.411Z,53.02
2018-10-12T06:35:47.410Z,52.56
2018-10-12T06:36:47.415Z,51.13
2018-10-12T06:37:47.444Z,50.84
2018-10-12T06:38:47.426Z,50.74
2018-10-12T06:39:47.430Z,50.55
2018-10-12T06:40:47.437Z,50.16
2018-10-12T06:41:47.589Z,50.45
2018-10-12T06:42:47.450Z,50.48
2018-10-12T06:43:47.450Z,49.99
2018-10-12T06:44:47.456Z,49.82
2018-10-12T06:45:47.503Z,49.54
2018-10-12T06:46:47.594Z,49.34
2018-10-12T06:47:47.473Z,49.44
2018-10-12T06:48:47.478Z,49.05
2018-10-12T06:49:47.484Z,49.54
2018-10-12T06:50:47.489Z,49.54
2018-10-12T06:51:47.496Z,49.34
2018-10-12T06:52:47.501Z,49.54
2018-10-12T06:53:47.555Z,49.73
2018-10-12T06:54:47.517Z,50.02
2018-10-12T06:55:47.522Z,50.21
2018-10-12T06:56:47.529Z,49.82
2018-10-12T06:57:47.533Z,48.39
2018-10-12T06:58:47.542Z,48.59
2018-10-12T06:59:47.570Z,47.89
2018-10-12T07:00:47.558Z,47.52
2018-10-12T07:01:47.563Z,47.62
2018-10-12T07:02:47.569Z,47.74
2018-10-12T07:03:47.577Z,47.45
2018-10-12T07:04:47.590Z,46.98
2018-10-12T07:05:47.668Z,46.79
2018-10-12T07:06:47.604Z,46.14
2018-10-12T07:07:47.609Z,46.11
2018-10-12T07:08:47.612Z,46.09
2018-10-12T07:09:47.624Z,47.74
2018-10-12T07:10:47.633Z,47.72
2018-10-12T07:11:47.645Z,47.91
2018-10-12T07:12:47.649Z,47.89
2018-10-12T07:13:47.688Z,48.66
2018-10-12T07:14:47.666Z,48.27
2018-10-12T07:15:47.671Z,48.57
2018-10-12T07:16:47.678Z,48.59
2018-10-12T07:17:47.685Z,48.83
2018-10-12T07:18:47.698Z,49.61
2018-10-12T07:19:47.704Z,49.70
2018-10-12T07:20:47.716Z,49.70
2018-10-12T07:21:47.723Z,49.63
2018-10-12T07:22:47.744Z,49.51
2018-10-12T07:23:47.740Z,49.32
2018-10-12T07:24:47.752Z,48.57
2018-10-12T07:25:47.765Z,48.18
2018-10-12T07:26:47.765Z,47.52
2018-10-12T07:27:47.773Z,47.62
2018-10-12T07:28:47.803Z,48.15
2018-10-12T07:29:47.787Z,49.39
2018-10-12T07:30:47.802Z,49.77
2018-10-12T07:31:47.829Z,49.39
2018-10-12T07:32:47.815Z,49.77
2018-10-12T07:33:47.820Z,49.80
2018-10-12T07:34:47.835Z,48.85
2018-10-12T07:35:47.833Z,48.57
2018-10-12T07:36:47.848Z,49.39
2018-10-12T07:37:47.913Z,49.02
2018-10-12T07:38:47.856Z,49.63
2018-10-12T07:39:47.910Z,48.66
2018-10-12T07:40:49.276Z,48.18
2018-10-12T07:41:56.045Z,49.32
2018-10-12T07:43:40.830Z,49.75
2018-10-12T07:44:40.804Z,50.65
2018-10-12T07:45:40.827Z,50.43
2018-10-12T07:46:40.802Z,51.30
2018-10-12T07:47:40.796Z,51.30
2018-10-12T07:48:47.934Z,51.20
2018-10-12T07:50:33.765Z,50.24
2018-10-12T07:51:33.678Z,50.35
2018-10-12T07:52:33.686Z,49.34
2018-10-12T07:53:33.691Z,47.72
2018-10-12T07:54:33.697Z,47.16
2018-10-12T07:55:33.711Z,46.11
2018-10-12T07:56:33.708Z,45.17
2018-10-12T07:57:33.806Z,46.52
2018-10-12T07:58:33.740Z,46.60
2018-10-12T07:59:33.821Z,45.89
2018-10-12T08:00:33.945Z,46.21
2018-10-12T08:01:33.734Z,45.18
2018-10-12T08:02:33.738Z,44.62
2018-10-12T08:03:33.746Z,44.43
2018-10-12T08:04:33.750Z,44.24
2018-10-12T08:05:33.886Z,44.60
2018-10-12T08:06:33.775Z,45.34
2018-10-12T08:07:33.766Z,46.38
2018-10-12T08:08:33.777Z,46.58
2018-10-12T08:09:33.838Z,47.47
2018-10-12T08:10:33.838Z,47.38
2018-10-12T08:11:33.788Z,47.45
2018-10-12T08:12:33.794Z,47.91
2018-10-12T08:13:33.857Z,47.81
2018-10-12T08:14:33.804Z,47.76
2018-10-12T08:15:33.923Z,46.42
2018-10-12T08:16:33.822Z,45.28
2018-10-12T08:17:33.823Z,44.65
2018-10-12T08:18:33.826Z,44.43
2018-10-12T08:19:33.831Z,44.74
2018-10-12T08:20:34.001Z,44.06
2018-10-12T08:21:33.840Z,43.33
2018-10-12T08:22:33.848Z,43.23
2018-10-12T08:23:33.853Z,43.13
2018-10-12T08:24:33.859Z,43.77
2018-10-12T08:25:34.005Z,43.33
2018-10-12T08:26:33.872Z,42.57
2018-10-12T08:27:33.873Z,42.38
2018-10-12T08:28:33.885Z,41.99
2018-10-12T08:29:33.889Z,41.81
2018-10-12T08:30:33.961Z,41.03
2018-10-12T08:31:33.964Z,40.91
2018-10-12T08:32:33.916Z,41.71
2018-10-12T08:33:33.924Z,41.54
2018-10-12T08:34:33.932Z,41.54
2018-10-12T08:35:34.081Z,40.80
2018-10-12T08:36:34.109Z,40.19
2018-10-12T08:37:33.962Z,40.29
2018-10-12T08:38:33.972Z,40.63
2018-10-12T08:39:33.983Z,40.53
2018-10-12T08:40:34.050Z,39.84
2018-10-12T08:41:34.006Z,39.75
2018-10-12T08:42:34.017Z,39.57
2018-10-12T08:43:34.029Z,39.67
2018-10-12T08:44:34.041Z,39.65
2018-10-12T08:45:34.185Z,39.55
2018-10-12T08:46:34.063Z,40.58
2018-10-12T08:47:34.077Z,41.09
2018-10-12T08:48:34.092Z,40.70
2018-10-12T08:49:34.104Z,40.33
2018-10-12T08:50:34.191Z,40.63
2018-10-12T08:51:34.132Z,40.41
2018-10-12T08:52:34.145Z,41.46
2018-10-12T08:53:34.167Z,41.54
2018-10-12T08:54:34.174Z,42.59
2018-10-12T08:55:34.480Z,42.61
2018-10-12T08:56:34.199Z,42.54
2018-10-12T08:57:34.211Z,42.34
2018-10-12T08:58:34.242Z,42.24
2018-10-12T08:59:34.245Z,41.87
2018-10-12T09:00:34.262Z,41.77
2018-10-12T09:01:34.272Z,41.77
2018-10-12T09:02:34.295Z,41.60
2018-10-12T09:03:34.304Z,42.26
2018-10-12T09:04:34.317Z,42.09
2018-10-12T09:05:34.333Z,41.77
2018-10-12T09:06:34.351Z,41.75
2018-10-12T09:07:34.364Z,42.05
2018-10-12T09:08:34.383Z,42.51
2018-10-12T09:09:34.391Z,42.80
2018-10-12T09:10:34.413Z,43.02
2018-10-12T09:11:34.427Z,42.54
2018-10-12T09:12:34.443Z,42.54
2018-10-12T09:13:34.459Z,42.44
2018-10-12T09:14:34.475Z,42.34
2018-10-12T09:15:34.489Z,42.90
2018-10-12T09:16:34.504Z,43.29
2018-10-12T09:17:34.520Z,43.32
2018-10-12T09:18:34.537Z,42.63
2018-10-12T09:19:34.559Z,42.98
2018-10-12T09:20:34.801Z,43.66
2018-10-12T09:21:34.591Z,43.68
2018-10-12T09:22:34.603Z,43.29
2018-10-12T09:23:34.622Z,43.47
2018-10-12T09:24:34.643Z,43.64
2018-10-12T09:25:34.657Z,43.74
2018-10-12T09:26:34.676Z,44.30
2018-10-12T09:27:34.689Z,44.79
2018-10-12T09:28:34.704Z,44.79
2018-10-12T09:29:34.728Z,44.49
2018-10-12T09:30:34.740Z,44.98
2018-10-12T09:31:34.757Z,44.52
2018-10-12T09:32:34.773Z,44.90
2018-10-12T09:33:34.794Z,45.37
2018-10-12T09:34:34.807Z,45.86
2018-10-12T09:35:34.827Z,45.37
2018-10-12T09:36:34.964Z,45.10
2018-10-12T09:37:34.860Z,45.10
2018-10-12T09:38:34.880Z,45.39
2018-10-12T09:39:34.898Z,45.39
2018-10-12T09:40:34.921Z,45.08
2018-10-12T09:41:34.933Z,45.78
2018-10-12T09:42:34.953Z,45.78
2018-10-12T09:43:34.976Z,44.59
2018-10-12T09:44:34.991Z,45.37
2018-10-12T09:45:35.011Z,45.37
2018-10-12T09:46:35.027Z,45.37
2018-10-12T09:47:35.049Z,45.23
2018-10-12T09:48:35.075Z,46.30
2018-10-12T09:49:35.088Z,46.30
2018-10-12T09:50:35.108Z,46.69
2018-10-12T09:51:35.124Z,47.66
2018-10-12T09:52:35.145Z,47.86
2018-10-12T09:53:35.162Z,46.30
2018-10-12T09:54:35.186Z,46.84
2018-10-12T09:55:35.200Z,47.52
2018-10-12T09:56:35.222Z,48.49
2018-10-12T09:57:35.241Z,49.46
2018-10-12T09:58:35.264Z,48.80
2018-10-12T09:59:35.279Z,48.61
2018-10-12T10:00:35.297Z,48.00
2018-10-12T10:01:35.348Z,49.54
2018-10-12T10:02:35.337Z,49.24
2018-10-12T10:03:35.357Z,49.37
2018-10-12T10:04:35.373Z,49.27
2018-10-12T10:05:35.388Z,48.88
2018-10-12T10:06:35.405Z,48.95
2018-10-12T10:07:35.488Z,48.57
2018-10-12T10:08:36.048Z,49.51
2018-10-12T10:09:35.461Z,49.73
2018-10-12T10:10:35.472Z,49.82
2018-10-12T10:11:35.488Z,49.34
2018-10-12T10:12:35.499Z,49.41
2018-10-12T10:13:35.537Z,49.71
2018-10-12T10:14:35.527Z,50.48
2018-10-12T10:15:35.637Z,50.07
2018-10-12T10:16:35.552Z,50.46
2018-10-12T10:17:35.562Z,50.26
2018-10-12T10:18:35.576Z,50.16
2018-10-12T10:19:35.589Z,50.07
2018-10-12T10:20:35.600Z,50.26
2018-10-12T10:21:35.610Z,50.04
2018-10-12T10:22:35.655Z,50.04
2018-10-12T10:23:35.641Z,50.43
2018-10-12T10:24:35.641Z,50.34
2018-10-12T10:25:35.656Z,50.92
2018-10-12T10:26:35.660Z,50.53
2018-10-12T10:27:35.671Z,50.43
2018-10-12T10:28:35.686Z,50.53
2018-10-12T10:29:35.688Z,50.34
2018-10-12T10:30:35.693Z,50.56
2018-10-12T10:31:35.707Z,50.46
2018-10-12T10:32:35.718Z,50.16
2018-10-12T10:33:35.724Z,50.26
2018-10-12T10:34:35.732Z,50.16
2018-10-12T10:35:35.749Z,49.90
2018-10-12T10:36:35.753Z,49.90
2018-10-12T10:37:35.760Z,49.02
2018-10-12T10:38:35.769Z,49.63
2018-10-12T10:39:35.774Z,48.83
2018-10-12T10:40:35.783Z,49.12
2018-10-12T10:41:35.790Z,49.22
2018-10-12T10:42:35.800Z,49.22
2018-10-12T10:43:35.807Z,49.12
2018-10-12T10:44:35.815Z,49.49
2018-10-12T10:45:35.822Z,49.32
2018-10-12T10:46:35.829Z,49.51
2018-10-12T10:47:35.844Z,49.41
2018-10-12T10:48:35.845Z,49.22
2018-10-12T10:49:35.853Z,49.54
2018-10-12T10:50:35.860Z,49.44
2018-10-12T10:51:35.868Z,49.32
2018-10-12T10:52:35.876Z,50.09
2018-10-12T10:53:35.934Z,49.41
2018-10-12T10:54:35.890Z,49.22
2018-10-12T10:55:35.899Z,49.41
2018-10-12T10:56:35.904Z,49.90
2018-10-12T10:57:35.913Z,49.82
2018-10-12T10:58:35.925Z,49.82
2018-10-12T10:59:35.931Z,49.24
2018-10-12T11:00:35.937Z,49.44
2018-10-12T11:01:35.942Z,49.46
2018-10-12T11:02:35.949Z,49.27
2018-10-12T11:03:35.957Z,49.56
2018-10-12T11:04:35.966Z,49.15
2018-10-12T11:05:35.970Z,49.73
2018-10-12T11:06:35.979Z,50.12
2018-10-12T11:07:35.985Z,49.82
2018-10-12T11:08:35.994Z,49.92
2018-10-12T11:09:36.001Z,49.80
2018-10-12T11:10:36.007Z,50.29
2018-10-12T11:11:36.037Z,50.29
2018-10-12T11:12:36.103Z,50.19
2018-10-12T11:13:36.046Z,49.99
2018-10-12T11:14:36.036Z,50.70
2018-10-12T11:15:36.043Z,50.38
2018-10-12T11:16:36.052Z,50.09
2018-10-12T11:17:36.063Z,50.38
2018-10-12T11:18:36.085Z,50.38
2018-10-12T11:19:36.127Z,50.99
2018-10-12T11:20:36.099Z,50.60
2018-10-12T11:21:36.085Z,49.92
2018-10-12T11:22:36.093Z,49.54
2018-10-12T11:23:36.100Z,49.99
2018-10-12T11:24:36.190Z,50.77
2018-10-12T11:25:36.131Z,50.68
2018-10-12T11:26:36.134Z,50.31
2018-10-12T11:27:36.127Z,50.51
2018-10-12T11:28:36.134Z,49.73
2018-10-12T11:29:36.141Z,50.70
2018-10-12T11:30:36.150Z,49.92
2018-10-12T11:31:36.212Z,50.02
2018-10-12T11:32:36.174Z,49.46
2018-10-12T11:33:36.169Z,49.76
2018-10-12T11:34:36.175Z,50.14
2018-10-12T11:35:36.183Z,50.31
2018-10-12T11:36:36.192Z,50.70
2018-10-12T11:37:36.195Z,50.60
2018-10-12T11:38:36.202Z,50.14
2018-10-12T11:39:36.212Z,49.46
2018-10-12T11:40:36.216Z,49.66
2018-10-12T11:41:36.222Z,49.37
2018-10-12T11:42:36.230Z,49.46
2018-10-12T11:43:36.239Z,50.02
2018-10-12T11:44:36.244Z,49.92
2018-10-12T11:45:36.250Z,50.48
2018-10-12T11:46:36.258Z,50.87
2018-10-12T11:47:36.288Z,50.77
2018-10-12T11:48:36.272Z,50.87
2018-10-12T11:49:36.278Z,50.80
2018-10-12T11:50:36.310Z,50.60
2018-10-12T11:51:36.310Z,50.31
2018-10-12T11:52:36.323Z,50.51
2018-10-12T11:53:36.300Z,50.80
2018-10-12T11:54:36.311Z,50.73
2018-10-12T11:55:36.318Z,50.04
2018-10-12T11:56:36.326Z,50.04
2018-10-12T11:57:36.334Z,50.14
2018-10-12T11:58:36.338Z,50.04
2018-10-12T11:59:36.345Z,49.66
2018-10-12T12:00:36.352Z,49.68
2018-10-12T12:01:36.361Z,49.76
2018-10-12T12:02:36.369Z,49.85
2018-10-12T12:03:36.394Z,49.37
2018-10-12T12:04:36.416Z,49.66
2018-10-12T12:05:36.395Z,49.85
2018-10-12T12:06:36.393Z,49.95
2018-10-12T12:07:36.425Z,49.66
2018-10-12T12:08:36.404Z,50.34
2018-10-12T12:09:36.414Z,50.04
2018-10-12T12:10:36.424Z,49.92
2018-10-12T12:11:36.425Z,49.92
2018-10-12T12:12:36.435Z,49.92
2018-10-12T12:13:36.517Z,50.51
2018-10-12T12:14:36.445Z,50.41
2018-10-12T12:15:36.455Z,50.60
2018-10-12T12:16:36.460Z,50.70
2018-10-12T12:17:36.498Z,49.85
2018-10-12T12:18:36.474Z,49.95
2018-10-12T12:19:36.488Z,49.82
2018-10-12T12:20:36.486Z,49.92
2018-10-12T12:21:36.492Z,49.73
2018-10-12T12:22:36.500Z,50.21
2018-10-12T12:23:36.505Z,50.51
2018-10-12T12:24:36.513Z,50.31
2018-10-12T12:25:36.520Z,50.77
2018-10-12T12:26:36.526Z,51.26
2018-10-12T12:27:36.532Z,50.89
2018-10-12T12:28:36.540Z,50.89
2018-10-12T12:29:36.547Z,50.31
2018-10-12T12:30:36.560Z,50.51
2018-10-12T12:31:36.560Z,50.38
2018-10-12T12:32:36.569Z,50.60
2018-10-12T12:33:36.569Z,50.41
2018-10-12T12:34:36.704Z,50.60
2018-10-12T12:35:36.969Z,50.80
2018-10-12T12:36:36.600Z,51.57
2018-10-12T12:37:36.599Z,51.57
2018-10-12T12:38:36.603Z,51.16
2018-10-12T12:39:36.639Z,50.89
2018-10-12T12:40:36.616Z,51.67
2018-10-12T12:41:36.679Z,51.48
2018-10-12T12:42:36.636Z,51.57
2018-10-12T12:43:36.637Z,51.28
2018-10-12T12:44:36.646Z,50.99
2018-10-12T12:45:36.647Z,50.73
2018-10-12T12:46:36.660Z,50.34
2018-10-12T12:47:36.776Z,50.14
2018-10-12T12:48:36.968Z,50.04
2018-10-12T12:49:36.676Z,50.14
2018-10-12T12:50:36.683Z,50.63
2018-10-12T12:51:36.692Z,50.63
2018-10-12T12:52:36.695Z,50.92
2018-10-12T12:53:36.707Z,50.34
2018-10-12T12:54:36.765Z,50.43